Ghadamis, Libya
Current Conditions -  °F | °C
As of 7:00 PM on Friday 24 Oct 2014 (Local Time) from DTTR Reporting Station
Clear Clear  
Wind Chill: 77°   Ceiling: Unl
Heat Index: 77°   Visibility: 6mi
Dew Point: 39°   Wind: 0mph
Humidity: 26%   Direction: NA
Pressure: 30"   Gusts: NA
Location:  30.13°N, 9.5°E
Report Text: DTTR 241600Z 00000KT CAVOK 25/04 Q1016
Loading
Personal Weather Stations






























Interactive Weather Map New forecast layout! Learn more

10-Day Weather Forecast

Advertisements
Track Severe Weather on mobile